Time;durP1;ratioP1;P1;durP2;ratioP2;P2;SDS_P1;SDS_P2;PMS_P1;PMS_P2;Temp;Humidity;BMP_temperature;BMP_pressure;BME280_temperature;BME280_humidity;BME280_pressure;Samples;Min_cycle;Max_cycle;Signal;HPM_P1;HPM_P2
2022/10/21 00:01:29;;;;;;;1.52;1.42;;;;;;;6.30;75.05;100305.84;5095222;28;20090;-67
2022/10/21 00:03:57;;;;;;;3.53;0.90;;;;;;;6.28;75.52;100307.47;5094489;28;20097;-66
2022/10/21 00:06:26;;;;;;;2.00;1.90;;;;;;;6.32;75.52;100308.41;5094523;28;20043;-65
2022/10/21 00:08:55;;;;;;;0.30;0.30;;;;;;;6.31;75.56;100312.59;5094451;28;20044;-65
2022/10/21 00:11:24;;;;;;;0.60;0.60;;;;;;;6.32;76.13;100309.28;5094549;28;20039;-66
2022/10/21 00:13:52;;;;;;;0.73;0.73;;;;;;;6.32;75.63;100309.28;5094321;28;20047;-65
2022/10/21 00:16:23;;;;;;;1.05;0.95;;;;;;;6.29;75.63;100314.25;5094327;28;20044;-65
2022/10/21 00:18:52;;;;;;;0.40;0.35;;;;;;;6.31;76.28;100310.06;5094593;28;20089;-65
2022/10/21 00:21:22;;;;;;;0.60;0.60;;;;;;;6.29;75.89;100309.19;5094277;28;20118;-66
2022/10/21 00:23:51;;;;;;;0.75;0.75;;;;;;;6.24;76.13;100305.66;5094755;28;20486;-65
2022/10/21 00:26:20;;;;;;;0.80;0.80;;;;;;;6.27;76.27;100318.44;5094152;28;20047;-65
2022/10/21 00:28:48;;;;;;;3.10;1.50;;;;;;;6.31;76.14;100312.59;5094127;28;20040;-66
2022/10/21 00:31:17;;;;;;;1.08;1.00;;;;;;;6.29;76.10;100313.38;5094317;28;20044;-65
2022/10/21 00:33:47;;;;;;;0.40;0.40;;;;;;;6.33;75.90;100321.13;5093992;28;20510;-65
2022/10/21 00:36:16;;;;;;;1.33;1.23;;;;;;;6.25;76.20;100309.06;5094051;28;20052;-66
2022/10/21 00:38:47;;;;;;;0.50;0.50;;;;;;;6.19;75.97;100304.69;5093832;28;20044;-65
2022/10/21 00:41:18;;;;;;;2.25;1.67;;;;;;;6.17;76.35;100298.72;5094014;28;20048;-65
2022/10/21 00:43:59;;;;;;;0.50;0.50;;;;;;;6.22;76.32;100302.22;5093879;28;20052;-66
2022/10/21 00:46:35;;;;;;;0.70;0.70;;;;;;;6.26;76.32;100298.97;5093905;28;20131;-65
2022/10/21 00:49:12;;;;;;;1.75;1.33;;;;;;;6.24;76.19;100298.06;5094178;28;20051;-65
2022/10/21 00:51:42;;;;;;;0.50;0.50;;;;;;;6.26;76.25;100298.97;5093796;28;20048;-65
2022/10/21 00:54:11;;;;;;;1.20;0.95;;;;;;;6.25;76.12;100294.72;5093527;28;20521;-66
2022/10/21 00:56:44;;;;;;;1.17;1.10;;;;;;;6.21;76.06;100292.94;5093733;28;20039;-66
2022/10/21 00:59:14;;;;;;;1.95;1.17;;;;;;;6.19;75.70;100284.41;5094054;28;20131;-65
2022/10/21 01:01:42;;;;;;;1.52;1.42;;;;;;;6.21;75.56;100272.66;5093762;28;20052;-66
2022/10/21 01:04:12;;;;;;;0.47;0.47;;;;;;;6.18;75.74;100270.03;5093640;28;20040;-67
2022/10/21 01:06:42;;;;;;;0.95;0.95;;;;;;;6.14;75.77;100262.31;5093987;28;20044;-65
2022/10/21 01:09:12;;;;;;;;;;;;;;;6.11;75.82;100255.50;5094049;28;20048;-65
2022/10/21 01:11:44;;;;;;;1.02;0.88;;;;;;;6.12;75.64;100258.88;5093572;28;19920;-66
2022/10/21 01:14:28;;;;;;;1.25;0.95;;;;;;;6.03;75.63;100249.34;5093962;28;20046;-65
2022/10/21 01:17:08;;;;;;;3.13;1.50;;;;;;;5.95;76.01;100264.34;5093559;28;20044;-65
2022/10/21 01:20:16;;;;;;;1.50;0.95;;;;;;;5.90;75.99;100276.03;5093496;28;20039;-67
2022/10/21 01:23:07;;;;;;;0.80;0.80;;;;;;;5.85;75.92;100259.88;5093813;28;20036;-66
2022/10/21 01:25:58;;;;;;;1.85;1.02;;;;;;;5.89;76.44;100263.34;5093955;28;20040;-65
2022/10/21 01:28:40;;;;;;;1.15;1.05;;;;;;;5.92;76.46;100263.41;5093812;28;20075;-65
2022/10/21 01:31:18;;;;;;;4.07;1.05;;;;;;;5.92;76.36;100265.97;5094203;28;20382;-66
2022/10/21 01:33:54;;;;;;;2.42;2.17;;;;;;;5.94;76.65;100261.78;5093410;28;20067;-66
2022/10/21 01:36:31;;;;;;;0.70;0.70;;;;;;;5.95;76.63;100258.44;5093378;28;20085;-65
2022/10/21 01:39:11;;;;;;;0.63;0.63;;;;;;;5.96;76.79;100247.47;5093359;28;20055;-66
2022/10/21 01:41:43;;;;;;;0.50;0.50;;;;;;;5.92;76.74;100251.63;5093332;28;20055;-66
2022/10/21 01:44:18;;;;;;;1.15;1.05;;;;;;;5.94;76.73;100249.13;5093658;28;20044;-65
2022/10/21 01:46:56;;;;;;;0.45;0.45;;;;;;;5.94;76.74;100251.66;5093250;28;20102;-66
2022/10/21 01:49:30;;;;;;;0.57;0.57;;;;;;;5.90;76.80;100253.22;5093304;28;20054;-66
2022/10/21 01:52:01;;;;;;;4.13;0.70;;;;;;;5.94;76.99;100247.44;5095112;28;20477;-65
2022/10/21 01:54:33;;;;;;;0.35;0.35;;;;;;;6.01;76.62;100235.78;5097028;28;20044;-66
2022/10/21 01:57:06;;;;;;;3.50;1.60;;;;;;;6.03;76.89;100236.69;5097314;28;20048;-66
2022/10/21 01:59:36;;;;;;;1.27;1.27;;;;;;;6.02;76.70;100240.06;5097016;28;20221;-65
2022/10/21 02:02:08;;;;;;;0.77;0.77;;;;;;;5.96;76.74;100237.34;5096968;28;20050;-66
2022/10/21 02:04:41;;;;;;;1.38;1.27;;;;;;;5.96;76.93;100247.47;5096907;28;20048;-66
2022/10/21 02:07:10;;;;;;;0.43;0.43;;;;;;;5.99;76.94;100235.75;5096803;28;20052;-66
2022/10/21 02:09:38;;;;;;;0.83;0.83;;;;;;;6.03;76.80;100229.09;5096793;28;20131;-66
2022/10/21 02:12:08;;;;;;;1.05;0.73;;;;;;;5.99;76.66;100228.16;5096630;28;20068;-65
2022/10/21 02:14:41;;;;;;;0.47;0.47;;;;;;;5.98;76.63;100212.91;5095734;28;20051;-65
2022/10/21 02:17:15;;;;;;;0.47;0.47;;;;;;;5.95;76.82;100210.31;5096635;28;20044;-66
2022/10/21 02:19:45;;;;;;;0.88;0.73;;;;;;;5.96;76.54;100212.00;5096641;28;20040;-65
2022/10/21 02:22:20;;;;;;;2.67;1.13;;;;;;;5.95;76.42;100226.34;5097164;28;20036;-67
2022/10/21 02:24:53;;;;;;;0.93;0.93;;;;;;;5.89;76.86;100230.41;5096812;28;20044;-67
2022/10/21 02:27:23;;;;;;;1.73;1.25;;;;;;;5.90;76.89;100227.06;5096403;28;20076;-65
2022/10/21 02:29:52;;;;;;;;;;;;;;;5.90;76.69;100222.84;5097121;28;20063;-67
2022/10/21 02:32:30;;;;;;;1.00;0.93;;;;;;;5.86;76.32;100220.19;5096625;28;19923;-66
2022/10/21 02:35:10;;;;;;;0.73;0.73;;;;;;;5.76;76.26;100218.22;5095755;28;20448;-67
2022/10/21 02:37:49;;;;;;;0.57;0.57;;;;;;;5.69;76.42;100213.78;5096250;28;20050;-66
2022/10/21 02:40:20;;;;;;;;;;;;;;;5.68;76.79;100224.72;5096669;28;20052;-66
2022/10/21 02:42:55;;;;;;;1.52;1.42;;;;;;;5.68;76.80;100219.66;5096495;28;19927;-65
2022/10/21 02:45:24;;;;;;;0.38;0.38;;;;;;;5.64;77.10;100207.75;5096141;28;20549;-65
2022/10/21 02:47:54;;;;;;;1.45;1.35;;;;;;;5.66;77.14;100216.25;5094890;28;20047;-66
2022/10/21 02:50:22;;;;;;;2.92;0.85;;;;;;;5.64;77.14;100213.66;5096097;28;20043;-66
2022/10/21 02:52:51;;;;;;;0.73;0.50;;;;;;;5.66;77.14;100216.25;5095888;28;20044;-65
2022/10/21 02:55:20;;;;;;;2.00;1.90;;;;;;;5.58;77.20;100207.56;5094583;28;20074;-65
2022/10/21 02:57:48;;;;;;;1.20;1.15;;;;;;;5.51;77.48;100193.03;5095891;28;20048;-65
2022/10/21 03:00:17;;;;;;;0.68;0.68;;;;;;;5.54;77.21;100200.72;5095752;28;20051;-65
2022/10/21 03:02:46;;;;;;;0.73;0.73;;;;;;;5.60;77.49;100205.94;5095326;28;20074;-66
2022/10/21 03:05:16;;;;;;;0.60;0.60;;;;;;;5.61;77.62;100205.13;5096020;28;20401;-65
2022/10/21 03:07:45;;;;;;;0.63;0.63;;;;;;;5.61;77.31;100208.53;5095714;28;20054;-65
2022/10/21 03:10:14;;;;;;;1.05;0.75;;;;;;;5.61;77.60;100202.59;5095872;28;20036;-65
2022/10/21 03:12:43;;;;;;;0.63;0.63;;;;;;;5.57;77.76;100190.66;5094646;28;20059;-66
2022/10/21 03:15:11;;;;;;;1.73;1.42;;;;;;;5.54;77.97;100188.06;5095508;28;20036;-65
2022/10/21 03:17:40;;;;;;;0.65;0.65;;;;;;;5.58;77.72;100203.38;5095491;28;20040;-66
2022/10/21 03:20:09;;;;;;;13.93;1.80;;;;;;;5.60;77.56;100199.19;5095349;28;20042;-66
2022/10/21 03:22:40;;;;;;;0.43;0.43;;;;;;;5.58;77.83;100195.78;5095349;28;20036;-67
2022/10/21 03:25:09;;;;;;;1.23;1.13;;;;;;;5.52;77.98;100192.22;5095635;28;20070;-65
2022/10/21 03:27:38;;;;;;;0.30;0.30;;;;;;;5.50;78.15;100197.22;5095588;28;20470;-66
2022/10/21 03:30:08;;;;;;;0.65;0.65;;;;;;;5.50;77.91;100194.69;5095128;28;20039;-66
2022/10/21 03:32:37;;;;;;;0.30;0.30;;;;;;;5.52;78.37;100194.75;5095361;28;20040;-66
2022/10/21 03:35:08;;;;;;;2.45;0.55;;;;;;;5.54;78.24;100188.06;5094253;28;20117;-66
2022/10/21 03:37:36;;;;;;;0.40;0.40;;;;;;;5.58;78.00;100192.38;5095418;28;20044;-65
2022/10/21 03:40:07;;;;;;;1.45;0.80;;;;;;;5.59;78.49;100192.41;5094913;28;20489;-66
2022/10/21 03:42:40;;;;;;;2.53;2.33;;;;;;;5.48;78.40;100181.16;5094995;28;20177;-66
2022/10/21 03:45:10;;;;;;;0.52;0.47;;;;;;;5.56;78.20;100199.06;5095238;28;20040;-65
2022/10/21 03:47:39;;;;;;;0.32;0.32;;;;;;;5.58;78.40;100187.31;5095219;28;20055;-66
2022/10/21 03:50:09;;;;;;;0.88;0.77;;;;;;;5.61;78.49;100192.47;5094792;28;20055;-66
2022/10/21 03:52:44;;;;;;;0.82;0.80;;;;;;;5.61;78.51;100192.47;5093761;28;20040;-65
2022/10/21 03:55:14;;;;;;;1.27;1.17;;;;;;;5.60;78.95;100191.59;5093267;28;20056;-67
2022/10/21 03:57:42;;;;;;;0.80;0.80;;;;;;;5.64;78.51;100187.50;5094750;28;20489;-66
2022/10/21 04:00:13;;;;;;;0.43;0.43;;;;;;;5.66;78.98;100185.84;5094967;28;20086;-66
2022/10/21 04:02:42;;;;;;;1.65;0.77;;;;;;;5.65;78.49;100190.06;5094976;28;20379;-67
2022/10/21 04:05:11;;;;;;;0.30;0.30;;;;;;;5.64;78.22;100188.31;5094593;28;20044;-65
2022/10/21 04:07:40;;;;;;;1.85;0.70;;;;;;;5.63;78.94;100201.81;5094524;28;20040;-66
2022/10/21 04:10:10;;;;;;;0.45;0.45;;;;;;;5.66;78.79;100201.06;5094828;28;20074;-65
2022/10/21 04:12:40;;;;;;;1.75;0.82;;;;;;;5.64;78.44;100205.22;5094870;28;20048;-65
2022/10/21 04:15:12;;;;;;;1.70;1.05;;;;;;;5.62;78.55;100199.22;5093636;28;20077;-66
2022/10/21 04:17:41;;;;;;;0.30;0.30;;;;;;;5.62;78.81;100192.50;5094352;28;20048;-66
2022/10/21 04:20:11;;;;;;;0.30;0.30;;;;;;;5.61;78.97;100187.41;5094593;28;20461;-65
2022/10/21 04:22:39;;;;;;;0.68;0.68;;;;;;;5.68;78.91;100185.09;5094480;28;20126;-66
2022/10/21 04:25:09;;;;;;;0.60;0.60;;;;;;;5.71;78.77;100179.25;5094246;28;20047;-66
2022/10/21 04:27:39;;;;;;;1.00;0.90;;;;;;;5.74;79.07;100169.16;5094471;28;20410;-65
2022/10/21 04:30:09;;;;;;;1.75;1.65;;;;;;;5.79;79.05;100177.75;5094101;28;20501;-66
2022/10/21 04:32:38;;;;;;;0.60;0.60;;;;;;;5.81;79.15;100186.25;5094244;28;20500;-65
2022/10/21 04:35:07;;;;;;;1.67;1.47;;;;;;;5.83;79.28;100190.53;5094055;28;20047;-65
2022/10/21 04:37:38;;;;;;;1.73;0.97;;;;;;;5.87;79.24;100184.78;5094390;28;20044;-66
2022/10/21 04:40:09;;;;;;;0.75;0.73;;;;;;;5.98;79.25;100164.78;5093968;28;20279;-67
2022/10/21 04:42:37;;;;;;;0.93;0.88;;;;;;;6.08;79.04;100171.78;5093942;28;20054;-66
2022/10/21 04:45:09;;;;;;;0.40;0.40;;;;;;;6.10;78.90;100175.22;5093954;28;20036;-66
2022/10/21 04:47:38;;;;;;;0.70;0.70;;;;;;;6.11;78.92;100176.94;5094326;28;20074;-66
2022/10/21 04:50:08;;;;;;;0.30;0.30;;;;;;;6.15;79.19;100163.50;5094120;28;20091;-66
2022/10/21 04:52:37;;;;;;;1.23;1.15;;;;;;;6.21;79.25;100168.75;5094128;28;20584;-65
2022/10/21 04:55:06;;;;;;;1.65;1.38;;;;;;;6.24;79.15;100162.91;5093807;28;20047;-66
2022/10/21 04:57:35;;;;;;;0.80;0.80;;;;;;;6.22;79.10;100155.25;5092809;28;20401;-66
2022/10/21 05:00:05;;;;;;;1.23;1.13;;;;;;;6.23;79.85;100159.50;5094032;28;20036;-67
2022/10/21 05:02:35;;;;;;;1.92;1.33;;;;;;;6.25;79.04;100152.78;5093667;28;20063;-65
2022/10/21 05:05:06;;;;;;;0.85;0.80;;;;;;;6.30;79.19;100158.81;5094304;28;20048;-65
2022/10/21 05:07:34;;;;;;;0.77;0.77;;;;;;;6.39;79.00;100175.91;5093915;28;20059;-67
2022/10/21 05:10:03;;;;;;;0.57;0.57;;;;;;;6.44;78.84;100162.53;5093545;28;20127;-66
2022/10/21 05:12:32;;;;;;;1.03;0.77;;;;;;;6.46;79.03;100165.09;5092352;28;20157;-66
2022/10/21 05:15:01;;;;;;;2.38;1.58;;;;;;;6.55;78.99;100172.94;5093437;28;20300;-67
2022/10/21 05:17:29;;;;;;;0.63;0.63;;;;;;;6.57;79.03;100159.47;5093669;28;20067;-67
2022/10/21 05:19:59;;;;;;;0.90;0.90;;;;;;;6.68;78.98;100168.19;5092297;28;20036;-66
2022/10/21 05:22:28;;;;;;;1.33;1.23;;;;;;;6.76;78.94;100170.88;5093505;28;20048;-66
2022/10/21 05:24:57;;;;;;;0.70;0.68;;;;;;;6.84;78.80;100168.53;5093481;28;20051;-67
2022/10/21 05:27:25;;;;;;;0.45;0.45;;;;;;;6.85;78.71;100175.28;5097707;28;20428;-66
2022/10/21 05:29:54;;;;;;;0.40;0.40;;;;;;;6.85;78.57;100176.16;5097930;28;20038;-66
2022/10/21 05:32:23;;;;;;;0.22;0.22;;;;;;;6.90;79.14;100178.78;5097814;28;20044;-66
2022/10/21 05:34:51;;;;;;;0.73;0.73;;;;;;;6.96;79.25;100178.94;5097345;28;20044;-66
2022/10/21 05:37:21;;;;;;;0.50;0.50;;;;;;;7.01;79.05;100162.09;5097408;28;20046;-66
2022/10/21 05:39:50;;;;;;;0.65;0.65;;;;;;;7.05;78.86;100167.31;5097420;28;20056;-66
2022/10/21 05:42:19;;;;;;;0.70;0.70;;;;;;;7.10;79.32;100157.25;5097272;28;20493;-66
2022/10/21 05:44:48;;;;;;;0.63;0.63;;;;;;;7.14;79.41;100169.16;5097218;28;20104;-67
2022/10/21 05:47:16;;;;;;;0.50;0.50;;;;;;;7.18;79.08;100160.78;5097237;28;20482;-67
2022/10/21 05:49:45;;;;;;;1.67;0.95;;;;;;;7.24;79.63;100160.91;5097176;28;20494;-66
2022/10/21 05:52:14;;;;;;;1.05;0.98;;;;;;;7.31;79.54;100152.59;5097386;28;20397;-67
2022/10/21 05:54:44;;;;;;;0.80;0.75;;;;;;;7.42;78.93;100171.44;5096677;28;20077;-66
2022/10/21 05:57:12;;;;;;;1.80;1.48;;;;;;;7.47;79.17;100174.91;5097063;28;20048;-66
2022/10/21 05:59:41;;;;;;;1.15;1.02;;;;;;;7.47;79.64;100166.44;5096945;28;20041;-66
2022/10/21 06:02:10;;;;;;;4.88;2.63;;;;;;;7.57;79.49;100178.47;5096898;28;20512;-66
2022/10/21 06:04:38;;;;;;;1.97;1.27;;;;;;;7.62;78.56;100179.44;5095878;28;20056;-66
2022/10/21 06:07:07;;;;;;;0.68;0.68;;;;;;;7.65;78.70;100177.81;5097195;28;20032;-65
2022/10/21 06:09:36;;;;;;;2.58;1.60;;;;;;;7.71;79.34;100180.47;5096740;28;20044;-66
2022/10/21 06:12:06;;;;;;;1.15;1.08;;;;;;;7.76;79.14;100181.41;5097088;28;20123;-67
2022/10/21 06:14:35;;;;;;;0.52;0.52;;;;;;;7.83;79.23;100170.53;5096776;28;20066;-67
2022/10/21 06:17:05;;;;;;;1.02;0.95;;;;;;;7.90;79.18;100176.56;5096605;28;20048;-67
2022/10/21 06:19:33;;;;;;;1.38;1.27;;;;;;;7.95;79.39;100172.41;5096577;28;20097;-66
2022/10/21 06:22:02;;;;;;;1.35;1.10;;;;;;;8.02;79.41;100174.25;5096724;28;20606;-66
2022/10/21 06:24:31;;;;;;;1.33;1.23;;;;;;;8.07;78.95;100173.50;5096790;28;20397;-66
2022/10/21 06:27:00;;;;;;;2.45;1.70;;;;;;;8.09;79.35;100179.47;5096680;28;20044;-66
2022/10/21 06:29:30;;;;;;;1.55;1.45;;;;;;;8.19;79.39;100175.38;5096724;28;20046;-66
2022/10/21 06:31:59;;;;;;;4.20;1.75;;;;;;;8.25;78.76;100184.81;5095464;28;20055;-67
2022/10/21 06:34:28;;;;;;;1.52;1.42;;;;;;;8.27;78.19;100185.72;5096476;28;20042;-66
2022/10/21 06:36:56;;;;;;;3.40;2.13;;;;;;;8.35;78.96;100194.34;5095631;28;20093;-67
2022/10/21 06:39:25;;;;;;;0.68;0.68;;;;;;;8.42;79.49;100194.44;5096011;28;20040;-66
2022/10/21 06:41:54;;;;;;;0.60;0.60;;;;;;;8.49;78.14;100195.41;5096201;28;20044;-66
2022/10/21 06:44:42;;;;;;;1.25;1.02;;;;;;;8.56;78.23;100197.22;5095135;28;20059;-66
2022/10/21 06:47:11;;;;;;;3.55;2.47;;;;;;;8.58;78.18;100200.63;5095235;28;20052;-66
2022/10/21 06:49:39;;;;;;;1.63;1.27;;;;;;;8.66;78.50;100204.16;5096105;28;20051;-66
2022/10/21 06:52:08;;;;;;;1.30;1.15;;;;;;;8.74;78.36;100205.97;5094726;28;20036;-66
2022/10/21 06:54:36;;;;;;;1.45;1.35;;;;;;;8.81;78.44;100189.09;5096039;28;20051;-66
2022/10/21 06:57:05;;;;;;;0.70;0.70;;;;;;;8.88;79.28;100182.44;5099188;28;20062;-66
2022/10/21 06:59:33;;;;;;;1.00;0.90;;;;;;;8.96;78.14;100174.06;5114350;28;20401;-66
2022/10/21 07:02:03;;;;;;;2.25;1.60;;;;;;;9.02;78.79;100179.22;5105061;28;20036;-66
2022/10/21 07:04:32;;;;;;;1.30;1.02;;;;;;;9.09;78.46;100180.19;5116465;28;20098;-66
2022/10/21 07:07:00;;;;;;;1.15;0.90;;;;;;;9.09;77.59;100191.22;5115917;28;20043;-65
2022/10/21 07:09:29;;;;;;;1.58;1.27;;;;;;;9.12;78.03;100183.59;5114528;28;20040;-67
2022/10/21 07:11:58;;;;;;;1.42;1.15;;;;;;;9.16;77.21;100176.88;5096623;28;20047;-65
2022/10/21 07:14:26;;;;;;;0.32;0.32;;;;;;;9.19;77.96;100179.47;5095396;28;20413;-66
2022/10/21 07:16:55;;;;;;;0.53;0.53;;;;;;;9.25;77.63;100172.75;5095540;28;20047;-66
2022/10/21 07:19:25;;;;;;;0.75;0.63;;;;;;;9.31;77.73;100175.34;5095356;28;20037;-66
2022/10/21 07:21:54;;;;;;;2.08;1.88;;;;;;;9.34;77.61;100179.63;5095359;28;20129;-66
2022/10/21 07:24:23;;;;;;;0.95;0.95;;;;;;;9.39;77.14;100181.41;5095280;28;20078;-67
2022/10/21 07:26:51;;;;;;;0.40;0.40;;;;;;;9.41;77.43;100167.00;5095211;28;20559;-66
2022/10/21 07:29:20;;;;;;;0.82;0.82;;;;;;;9.49;78.14;100168.78;5095248;28;20044;-65
2022/10/21 07:31:49;;;;;;;2.90;1.00;;;;;;;9.54;77.65;100164.59;5095181;28;20127;-67
2022/10/21 07:34:17;;;;;;;1.20;0.95;;;;;;;9.56;77.87;100156.13;5095395;28;20130;-67
2022/10/21 07:36:51;;;;;;;2.20;1.80;;;;;;;9.64;78.10;100156.22;5095056;28;20051;-66
2022/10/21 07:39:23;;;;;;;0.30;0.30;;;;;;;9.60;77.47;100159.56;5095963;28;20486;-67
2022/10/21 07:41:54;;;;;;;3.13;2.83;;;;;;;9.62;77.23;100157.88;5094167;28;20093;-67
2022/10/21 07:44:25;;;;;;;0.98;0.93;;;;;;;9.63;75.98;100150.25;5094956;28;20071;-66
2022/10/21 07:46:54;;;;;;;6.60;2.92;;;;;;;9.68;75.86;100147.75;5098844;28;20044;-66
2022/10/21 07:49:24;;;;;;;0.50;0.50;;;;;;;9.76;75.34;100143.59;5094631;28;20048;-68
2022/10/21 07:51:54;;;;;;;2.40;1.15;;;;;;;9.89;73.65;100140.31;5107030;28;20040;-66
2022/10/21 07:54:23;;;;;;;1.05;0.95;;;;;;;10.18;72.64;100156.75;5094630;28;20070;-67
2022/10/21 07:56:52;;;;;;;0.57;0.57;;;;;;;10.54;70.35;100146.84;5094718;28;20508;-66
2022/10/21 07:59:23;;;;;;;0.32;0.32;;;;;;;10.78;68.84;100144.44;5094742;28;20394;-66
2022/10/21 08:01:52;;;;;;;1.10;1.00;;;;;;;10.92;67.50;100149.59;5094580;28;20076;-66
2022/10/21 08:04:23;;;;;;;;;;;;;;;11.00;66.07;100147.97;5096172;28;20074;-68
2022/10/21 08:06:52;;;;;;;0.88;0.80;;;;;;;11.08;65.42;100140.34;5094778;28;19970;-65
2022/10/21 08:09:22;;;;;;;0.32;0.32;;;;;;;11.13;64.33;100149.72;5115123;28;20063;-66
2022/10/21 08:11:51;;;;;;;2.95;1.42;;;;;;;11.11;63.79;100140.34;5114821;28;20096;-66
2022/10/21 08:14:19;;;;;;;1.45;1.20;;;;;;;11.13;63.68;100141.22;5114947;28;20070;-67
2022/10/21 08:16:52;;;;;;;0.63;0.63;;;;;;;11.17;63.47;100140.38;5114725;28;20051;-66
2022/10/21 08:19:28;;;;;;;1.05;0.95;;;;;;;11.28;62.66;100148.91;5114680;28;20063;-66
2022/10/21 08:21:57;;;;;;;0.60;0.52;;;;;;;11.42;62.36;100131.97;5107672;28;20063;-66
2022/10/21 08:24:28;;;;;;;0.50;0.50;;;;;;;11.55;62.32;100137.94;5094175;28;20616;-67
2022/10/21 08:26:57;;;;;;;0.55;0.55;;;;;;;11.56;61.88;100139.66;5094527;28;20044;-66
2022/10/21 08:29:25;;;;;;;0.50;0.50;;;;;;;11.54;61.60;100126.84;5094084;28;20036;-66
2022/10/21 08:31:54;;;;;;;0.40;0.40;;;;;;;11.62;61.24;100120.06;5094086;28;20046;-67
2022/10/21 08:34:23;;;;;;;1.95;1.27;;;;;;;11.71;61.50;100119.28;5094600;28;20481;-67
2022/10/21 08:36:51;;;;;;;0.50;0.50;;;;;;;11.86;61.24;100112.47;5094171;28;20489;-66
2022/10/21 08:39:20;;;;;;;0.85;0.85;;;;;;;12.00;60.60;100108.22;5093981;28;20044;-67
2022/10/21 08:42:05;;;;;;;0.98;0.95;;;;;;;12.02;60.15;100096.25;5093797;28;20044;-67
2022/10/21 08:44:43;;;;;;;0.60;0.60;;;;;;;12.04;59.61;100088.59;5094473;28;20450;-66
2022/10/21 08:47:30;;;;;;;2.60;0.77;;;;;;;12.09;59.77;100090.28;5105272;28;20035;-66
2022/10/21 08:50:03;;;;;;;1.40;0.73;;;;;;;12.14;59.59;100082.59;5093859;28;20050;-67
2022/10/21 08:52:40;;;;;;;0.57;0.57;;;;;;;12.24;59.11;100093.72;5093884;28;20044;-67
2022/10/21 08:55:16;;;;;;;0.75;0.75;;;;;;;12.21;58.48;100098.84;5093637;28;20066;-67
2022/10/21 08:57:47;;;;;;;0.63;0.60;;;;;;;12.21;58.19;100104.81;5093751;28;20412;-66
2022/10/21 09:00:20;;;;;;;0.28;0.28;;;;;;;12.20;58.48;100094.56;5093783;28;20050;-67
2022/10/21 09:03:03;;;;;;;0.45;0.40;;;;;;;12.18;58.16;100065.56;5093692;28;20044;-67
2022/10/21 09:05:58;;;;;;;1.08;0.70;;;;;;;12.19;58.28;100067.28;5093723;28;20055;-68
2022/10/21 09:08:36;;;;;;;0.25;0.25;;;;;;;12.24;58.13;100070.69;5070853;28;20052;-66
2022/10/21 09:11:12;;;;;;;3.65;0.93;;;;;;;12.27;57.74;100070.66;5093639;28;20105;-67
2022/10/21 09:13:55;;;;;;;0.30;0.30;;;;;;;12.34;57.65;100065.53;5094446;28;20393;-67
2022/10/21 09:16:33;;;;;;;2.50;0.90;;;;;;;12.36;57.14;100066.38;5093614;28;20039;-67
2022/10/21 09:19:14;;;;;;;2.40;1.00;;;;;;;12.36;57.03;100060.41;5092593;28;20082;-65
2022/10/21 09:21:59;;;;;;;1.83;1.67;;;;;;;12.34;56.80;100059.56;5093853;28;20055;-66
2022/10/21 09:24:54;;;;;;;0.73;0.65;;;;;;;12.32;56.54;100071.50;5093669;28;20509;-67
2022/10/21 09:27:23;;;;;;;1.75;1.65;;;;;;;12.32;56.81;100079.19;5093530;28;20044;-66
2022/10/21 09:30:17;;;;;;;1.13;1.02;;;;;;;12.27;56.81;100086.00;5093437;28;20048;-65
2022/10/21 09:32:49;;;;;;;0.65;0.65;;;;;;;12.24;56.89;100080.94;5093859;28;20059;-65
2022/10/21 09:35:27;;;;;;;0.60;0.60;;;;;;;12.21;56.75;100065.56;5108017;28;20038;-65
2022/10/21 09:37:58;;;;;;;0.40;0.40;;;;;;;12.21;57.05;100073.25;5113967;28;20047;-66
2022/10/21 09:40:30;;;;;;;0.60;0.60;;;;;;;12.23;57.02;100063.84;5093794;28;20410;-66
2022/10/21 09:43:00;;;;;;;0.25;0.25;;;;;;;12.23;57.08;100058.72;5091944;28;20044;-66
2022/10/21 09:45:35;;;;;;;1.00;0.57;;;;;;;12.28;57.06;100062.13;5093205;28;20057;-66
2022/10/21 09:48:07;;;;;;;0.30;0.30;;;;;;;12.29;57.03;100056.16;5093197;28;20044;-65
2022/10/21 09:50:37;;;;;;;1.20;0.60;;;;;;;12.27;57.12;100045.06;5093299;28;20037;-65
2022/10/21 09:53:13;;;;;;;1.05;0.80;;;;;;;12.22;57.04;100036.53;5093536;28;20502;-67
2022/10/21 09:55:45;;;;;;;0.70;0.65;;;;;;;12.22;57.08;100041.66;5091782;28;20048;-66
2022/10/21 09:58:25;;;;;;;1.48;0.80;;;;;;;12.19;57.24;100026.34;5093116;28;20048;-66
2022/10/21 10:00:56;;;;;;;0.63;0.63;;;;;;;12.20;56.78;100023.75;5093522;28;20048;-66
2022/10/21 10:03:33;;;;;;;0.30;0.30;;;;;;;12.21;56.98;100022.06;5093105;28;20401;-66
2022/10/21 10:06:02;;;;;;;0.93;0.73;;;;;;;12.26;57.09;100018.63;5093139;28;20548;-66
2022/10/21 10:08:36;;;;;;;2.75;2.10;;;;;;;12.32;57.08;100015.19;5092986;28;20048;-66
2022/10/21 10:11:18;;;;;;;0.70;0.70;;;;;;;12.36;56.78;100010.06;5092345;28;20045;-66
2022/10/21 10:13:48;;;;;;;1.05;0.98;;;;;;;12.40;56.52;100013.50;5095816;28;20047;-66
2022/10/21 10:16:27;;;;;;;0.40;0.40;;;;;;;12.39;56.44;100019.44;5096402;28;20068;-69
2022/10/21 10:19:14;;;;;;;0.68;0.68;;;;;;;12.39;56.77;100016.88;5095616;28;20051;-66
2022/10/21 10:21:46;;;;;;;0.50;0.50;;;;;;;12.38;56.98;100022.88;5096849;28;20481;-67
2022/10/21 10:24:18;;;;;;;0.30;0.30;;;;;;;12.44;56.99;100025.41;5096928;28;20047;-66
2022/10/21 10:26:47;;;;;;;0.60;0.60;;;;;;;12.42;56.72;100024.56;5096523;28;20097;-66
2022/10/21 10:29:22;;;;;;;;;;;;;;;12.38;56.96;100017.75;5096860;28;20097;-67
2022/10/21 10:31:56;;;;;;;0.60;0.60;;;;;;;12.37;56.78;100018.59;5096444;28;19924;-66
2022/10/21 10:34:31;;;;;;;14.55;1.38;;;;;;;12.33;56.63;100022.03;5095481;28;20151;-67
2022/10/21 10:37:03;;;;;;;0.47;0.47;;;;;;;12.38;56.62;100020.31;5096585;28;20509;-67
2022/10/21 10:39:34;;;;;;;1.25;1.15;;;;;;;12.34;56.76;100008.38;5095586;28;20056;-67
2022/10/21 10:42:04;;;;;;;0.47;0.47;;;;;;;12.26;56.98;100000.69;5105313;28;20485;-66
2022/10/21 10:44:37;;;;;;;2.00;1.35;;;;;;;12.36;57.13;99998.97;5096121;28;20054;-66
2022/10/21 10:47:18;;;;;;;0.40;0.40;;;;;;;12.39;57.21;99989.59;5096381;28;20489;-65
2022/10/21 10:49:47;;;;;;;0.90;0.77;;;;;;;12.39;57.06;99986.16;5096400;28;20078;-66
2022/10/21 10:52:21;;;;;;;2.17;1.17;;;;;;;12.42;57.07;99978.50;5095979;28;20047;-66
2022/10/21 10:55:18;;;;;;;0.50;0.50;;;;;;;12.39;56.78;99966.56;5100087;28;20051;-66
2022/10/21 10:57:53;;;;;;;0.45;0.45;;;;;;;12.41;56.82;99944.34;5115598;28;20390;-67
2022/10/21 11:00:40;;;;;;;1.27;0.88;;;;;;;12.45;56.69;99929.84;5115874;28;20051;-66
2022/10/21 11:03:14;;;;;;;0.70;0.70;;;;;;;12.49;56.01;99928.97;5116233;28;20560;-64
2022/10/21 11:05:46;;;;;;;0.40;0.40;;;;;;;12.51;55.67;99927.25;5116128;28;20076;-64
2022/10/21 11:08:18;;;;;;;0.43;0.43;;;;;;;12.47;55.38;99920.44;5116377;28;20052;-66
2022/10/21 11:10:53;;;;;;;0.32;0.32;;;;;;;12.37;55.47;99903.44;5116070;28;20046;-67
2022/10/21 11:13:23;;;;;;;0.73;0.73;;;;;;;12.49;55.54;99924.72;5116293;28;20047;-66
2022/10/21 11:16:10;;;;;;;0.70;0.63;;;;;;;12.52;55.26;99913.59;5115871;28;20489;-66
2022/10/21 11:18:44;;;;;;;0.60;0.60;;;;;;;12.54;55.03;99917.00;5115475;28;20530;-66
2022/10/21 11:21:42;;;;;;;0.40;0.40;;;;;;;12.55;54.87;99903.31;5115399;28;20036;-66
2022/10/21 11:24:28;;;;;;;0.50;0.50;;;;;;;12.57;54.90;99906.75;5115652;28;20043;-65
2022/10/21 11:27:04;;;;;;;0.75;0.70;;;;;;;12.62;54.89;99907.59;5115984;28;20044;-65
2022/10/21 11:29:46;;;;;;;3.58;0.90;;;;;;;12.69;55.03;99901.56;5114643;28;20108;-65
2022/10/21 11:32:41;;;;;;;1.25;1.15;;;;;;;12.72;55.51;99896.41;5115886;27;20071;-66
2022/10/21 11:35:18;;;;;;;0.50;0.50;;;;;;;12.78;55.66;99892.13;5115108;28;20043;-66
2022/10/21 11:37:59;;;;;;;0.68;0.68;;;;;;;12.83;55.16;99898.91;5115261;28;20081;-67
2022/10/21 11:40:39;;;;;;;0.47;0.45;;;;;;;12.87;54.24;99898.88;5115601;28;20048;-66
2022/10/21 11:43:17;;;;;;;;;;;;;;;12.86;54.11;99889.47;5110460;28;20420;-66
2022/10/21 11:45:57;;;;;;;2.78;0.65;;;;;;;12.89;54.07;99889.47;5106128;28;19926;-67
2022/10/21 11:48:41;;;;;;;0.70;0.70;;;;;;;12.91;53.94;99886.91;5115578;28;20044;-66
2022/10/21 11:51:22;;;;;;;1.27;0.85;;;;;;;12.95;54.40;99878.34;5115204;28;20101;-66
2022/10/21 11:54:07;;;;;;;0.85;0.85;;;;;;;12.97;54.29;99874.03;5115033;27;20051;-67
2022/10/21 11:56:43;;;;;;;2.80;1.40;;;;;;;12.96;54.08;99869.78;5115303;28;20032;-66